createdAt,value
2023-04-09T00:02:03.188Z,17.05
2023-04-09T00:04:29.990Z,15.80
2023-04-09T00:06:56.838Z,16.52
2023-04-09T00:09:23.591Z,16.95
2023-04-09T00:11:50.383Z,15.82
2023-04-09T00:14:17.343Z,16.48
2023-04-09T00:16:44.219Z,15.63
2023-04-09T00:19:12.031Z,16.17
2023-04-09T00:21:38.799Z,16.23
2023-04-09T00:24:05.968Z,16.70
2023-04-09T00:26:32.675Z,15.68
2023-04-09T00:28:59.410Z,16.48
2023-04-09T00:31:26.439Z,15.88
2023-04-09T00:33:53.221Z,15.85
2023-04-09T00:36:20.031Z,16.00
2023-04-09T00:38:48.320Z,15.77
2023-04-09T00:41:15.044Z,15.93
2023-04-09T00:43:41.798Z,16.00
2023-04-09T00:46:08.781Z,16.65
2023-04-09T00:48:35.676Z,18.05
2023-04-09T00:51:02.489Z,17.38
2023-04-09T00:53:29.319Z,17.77
2023-04-09T00:55:56.115Z,16.85
2023-04-09T00:58:22.986Z,18.02
2023-04-09T01:03:24.878Z,20.60
2023-04-09T01:06:03.695Z,19.00
2023-04-09T01:08:49.748Z,19.95
2023-04-09T01:11:35.392Z,18.92
2023-04-09T01:14:09.459Z,20.00
2023-04-09T01:16:37.469Z,20.83
2023-04-09T01:19:11.548Z,21.13
2023-04-09T01:21:38.889Z,21.17
2023-04-09T01:24:31.336Z,20.13
2023-04-09T01:27:06.936Z,21.13
2023-04-09T01:29:42.286Z,21.48
2023-04-09T01:32:09.912Z,21.40
2023-04-09T01:34:37.099Z,19.75
2023-04-09T01:37:04.297Z,22.23
2023-04-09T01:39:31.123Z,21.92
2023-04-09T01:41:58.339Z,21.25
2023-04-09T01:44:26.453Z,21.60
2023-04-09T01:46:54.734Z,20.67
2023-04-09T01:49:22.409Z,21.02
2023-04-09T01:51:49.397Z,19.88
2023-04-09T01:54:17.255Z,19.98
2023-04-09T01:56:45.596Z,20.58
2023-04-09T01:59:12.535Z,21.38
2023-04-09T02:01:54.180Z,20.90
2023-04-09T02:04:41.930Z,20.77
2023-04-09T02:07:18.182Z,21.08
2023-04-09T02:09:45.858Z,20.58
2023-04-09T02:12:14.124Z,20.92
2023-04-09T02:14:41.754Z,19.85
2023-04-09T02:17:08.557Z,19.73
2023-04-09T02:19:46.533Z,19.42
2023-04-09T02:22:13.591Z,21.10
2023-04-09T02:24:40.994Z,19.80
2023-04-09T02:27:08.060Z,20.05
2023-04-09T02:29:34.944Z,19.55
2023-04-09T02:32:01.776Z,20.70
2023-04-09T02:34:28.558Z,20.23
2023-04-09T02:36:55.454Z,20.02
2023-04-09T02:39:22.157Z,20.08
2023-04-09T02:41:48.921Z,20.63
2023-04-09T02:44:15.719Z,20.85
2023-04-09T02:46:42.811Z,22.13
2023-04-09T02:49:09.592Z,21.30
2023-04-09T02:51:36.373Z,21.10
2023-04-09T02:54:04.060Z,21.65
2023-04-09T02:56:31.012Z,21.08
2023-04-09T02:58:57.715Z,21.92
2023-04-09T03:01:24.462Z,22.90
2023-04-09T03:03:51.417Z,22.85
2023-04-09T03:06:18.762Z,22.02
2023-04-09T03:08:45.759Z,22.50
2023-04-09T03:11:12.505Z,22.85
2023-04-09T03:13:42.425Z,23.17
2023-04-09T03:16:10.594Z,23.35
2023-04-09T03:18:37.630Z,23.75
2023-04-09T03:21:08.172Z,24.27
2023-04-09T03:23:35.455Z,22.92
2023-04-09T03:26:06.573Z,23.77
2023-04-09T03:28:33.524Z,23.52
2023-04-09T03:31:00.373Z,23.33
2023-04-09T03:33:27.264Z,24.70
2023-04-09T03:35:54.156Z,23.15
2023-04-09T03:38:20.940Z,24.25
2023-04-09T03:40:47.746Z,24.35
2023-04-09T03:43:14.564Z,23.30
2023-04-09T03:45:41.381Z,23.27
2023-04-09T03:48:08.078Z,23.48
2023-04-09T03:50:41.601Z,24.27
2023-04-09T03:53:08.317Z,23.95
2023-04-09T03:55:35.158Z,23.95
2023-04-09T03:58:01.989Z,23.20
2023-04-09T04:00:28.721Z,23.48
2023-04-09T04:02:55.786Z,22.98
2023-04-09T04:05:28.332Z,23.35
2023-04-09T04:07:55.027Z,24.13
2023-04-09T04:10:21.742Z,22.85
2023-04-09T04:12:48.485Z,23.23
2023-04-09T04:15:15.492Z,22.98
2023-04-09T04:17:42.460Z,23.05
2023-04-09T04:20:10.507Z,23.17
2023-04-09T04:22:37.282Z,23.52
2023-04-09T04:25:04.875Z,23.35
2023-04-09T04:27:31.708Z,23.35
2023-04-09T04:30:02.742Z,22.48
2023-04-09T04:32:29.608Z,24.10
2023-04-09T04:34:56.393Z,23.42
2023-04-09T04:37:23.092Z,24.15
2023-04-09T04:39:49.990Z,23.75
2023-04-09T04:42:17.293Z,23.40
2023-04-09T04:44:44.849Z,24.42
2023-04-09T04:47:11.554Z,25.35
2023-04-09T04:49:38.295Z,23.70
2023-04-09T04:52:05.943Z,23.70
2023-04-09T04:54:33.927Z,24.15
2023-04-09T04:57:01.488Z,24.13
2023-04-09T04:59:28.236Z,24.23
2023-04-09T05:01:55.156Z,24.25
2023-04-09T05:04:21.990Z,24.92
2023-04-09T05:06:49.051Z,25.80
2023-04-09T05:09:16.015Z,24.50
2023-04-09T05:11:42.938Z,25.63
2023-04-09T05:14:09.682Z,25.95
2023-04-09T05:16:36.524Z,25.75
2023-04-09T05:19:03.246Z,25.38
2023-04-09T05:21:30.072Z,25.90
2023-04-09T05:23:57.175Z,26.10
2023-04-09T05:26:24.216Z,26.15
2023-04-09T05:28:51.731Z,26.00
2023-04-09T05:31:18.755Z,25.25
2023-04-09T05:33:45.765Z,25.63
2023-04-09T05:36:17.419Z,24.92
2023-04-09T05:38:45.214Z,25.85
2023-04-09T05:41:11.945Z,26.67
2023-04-09T05:43:39.237Z,26.25
2023-04-09T05:46:06.039Z,26.33
2023-04-09T05:48:35.741Z,26.67
2023-04-09T05:51:02.803Z,25.77
2023-04-09T05:53:29.842Z,25.75
2023-04-09T05:55:56.639Z,26.05
2023-04-09T05:58:23.582Z,26.17
2023-04-09T06:00:52.045Z,26.50
2023-04-09T06:03:19.194Z,27.38
2023-04-09T06:05:46.942Z,27.02
2023-04-09T06:08:14.437Z,27.55
2023-04-09T06:10:41.658Z,27.52
2023-04-09T06:13:08.493Z,27.33
2023-04-09T06:15:35.314Z,26.95
2023-04-09T06:18:02.374Z,28.05
2023-04-09T06:20:29.180Z,28.02
2023-04-09T06:22:56.321Z,29.20
2023-04-09T06:25:23.460Z,29.45
2023-04-09T06:27:50.786Z,31.58
2023-04-09T06:30:17.589Z,31.40
2023-04-09T06:32:54.257Z,31.40
2023-04-09T06:35:22.166Z,32.75
2023-04-09T06:37:49.215Z,32.88
2023-04-09T06:40:15.915Z,32.92
2023-04-09T06:42:42.861Z,32.38
2023-04-09T06:45:10.483Z,33.63
2023-04-09T06:47:37.445Z,33.22
2023-04-09T06:50:04.716Z,33.95
2023-04-09T06:52:31.579Z,32.63
2023-04-09T06:54:58.648Z,33.35
2023-04-09T06:57:26.605Z,32.45
2023-04-09T06:59:53.352Z,33.20
2023-04-09T07:02:20.243Z,31.95
2023-04-09T07:04:47.953Z,33.15
2023-04-09T07:07:14.950Z,33.25
2023-04-09T07:09:42.997Z,34.13
2023-04-09T07:12:09.724Z,32.83
2023-04-09T07:14:36.459Z,33.30
2023-04-09T07:17:03.339Z,33.25
2023-04-09T07:19:30.069Z,32.60
2023-04-09T07:21:56.954Z,32.70
2023-04-09T07:24:23.684Z,33.88
2023-04-09T07:26:52.075Z,32.10
2023-04-09T07:29:21.079Z,32.50
2023-04-09T07:31:47.985Z,32.38
2023-04-09T07:34:15.040Z,33.00
2023-04-09T07:36:43.088Z,33.33
2023-04-09T07:39:09.944Z,31.85
2023-04-09T07:41:37.866Z,33.53
2023-04-09T07:44:06.711Z,34.00
2023-04-09T07:46:33.580Z,33.08
2023-04-09T07:49:01.010Z,33.30
2023-04-09T07:51:28.055Z,37.17
2023-04-09T07:53:55.434Z,33.00
2023-04-09T07:56:22.723Z,31.90
2023-04-09T07:58:49.789Z,32.92
2023-04-09T08:01:17.004Z,32.88
2023-04-09T08:03:44.036Z,31.45
2023-04-09T08:06:11.281Z,32.17
2023-04-09T08:08:38.396Z,29.98
2023-04-09T08:11:05.302Z,27.67
2023-04-09T08:13:32.014Z,29.45
2023-04-09T08:16:02.478Z,28.65
2023-04-09T08:18:29.884Z,28.02
2023-04-09T08:20:57.943Z,26.55
2023-04-09T08:23:24.762Z,26.90
2023-04-09T08:25:51.591Z,26.60
2023-04-09T08:28:18.660Z,26.05
2023-04-09T08:30:45.789Z,25.73
2023-04-09T08:33:12.553Z,24.92
2023-04-09T08:35:40.903Z,22.98
2023-04-09T08:38:07.556Z,22.00
2023-04-09T08:40:37.403Z,22.08
2023-04-09T08:43:06.533Z,22.92
2023-04-09T08:45:33.366Z,21.50
2023-04-09T08:48:00.961Z,22.35
2023-04-09T08:50:28.059Z,22.73
2023-04-09T08:52:55.002Z,22.38
2023-04-09T08:55:22.543Z,22.13
2023-04-09T08:57:49.204Z,21.67
2023-04-09T09:00:16.179Z,21.25
2023-04-09T09:03:08.815Z,22.17
2023-04-09T09:05:37.372Z,21.38
2023-04-09T09:08:04.517Z,20.88
2023-04-09T09:10:41.777Z,21.40
2023-04-09T09:13:17.630Z,20.55
2023-04-09T09:15:44.632Z,20.25
2023-04-09T09:18:11.420Z,20.10
2023-04-09T09:20:38.543Z,21.20
2023-04-09T09:23:05.630Z,21.20
2023-04-09T09:25:38.355Z,20.02
2023-04-09T09:28:12.492Z,20.73
2023-04-09T09:30:40.515Z,20.88
2023-04-09T09:33:11.497Z,21.13
2023-04-09T09:35:52.701Z,18.60
2023-04-09T09:38:19.487Z,19.10
2023-04-09T09:40:46.866Z,18.92
2023-04-09T09:43:14.743Z,19.92
2023-04-09T09:45:42.203Z,19.10
2023-04-09T09:48:11.379Z,19.08
2023-04-09T09:50:39.601Z,18.95
2023-04-09T09:53:07.608Z,19.63
2023-04-09T09:55:37.101Z,19.92
2023-04-09T09:58:12.368Z,18.60
2023-04-09T10:00:40.798Z,18.63
2023-04-09T10:03:21.663Z,18.30
2023-04-09T10:05:49.222Z,18.40
2023-04-09T10:08:16.533Z,18.88
2023-04-09T10:10:43.781Z,20.42
2023-04-09T10:13:16.354Z,19.50
2023-04-09T10:15:44.963Z,18.73
2023-04-09T10:18:11.956Z,18.30
2023-04-09T10:20:57.549Z,18.20
2023-04-09T10:23:42.734Z,18.90
2023-04-09T10:26:09.549Z,17.85
2023-04-09T10:28:38.588Z,18.23
2023-04-09T10:31:09.135Z,18.38
2023-04-09T10:33:39.210Z,18.17
2023-04-09T10:36:13.229Z,18.65
2023-04-09T10:38:41.627Z,18.15
2023-04-09T10:41:10.680Z,17.48
2023-04-09T10:43:37.731Z,16.77
2023-04-09T10:46:05.656Z,17.27
2023-04-09T10:48:35.631Z,17.10
2023-04-09T10:51:05.908Z,16.45
2023-04-09T10:53:32.836Z,16.15
2023-04-09T10:55:59.563Z,15.88
2023-04-09T10:58:26.271Z,17.05
2023-04-09T11:00:54.557Z,16.33
2023-04-09T11:03:24.167Z,15.20
2023-04-09T11:06:02.437Z,14.68
2023-04-09T11:08:30.934Z,14.27
2023-04-09T11:11:02.293Z,14.07
2023-04-09T11:13:31.064Z,14.00
2023-04-09T11:15:58.665Z,13.30
2023-04-09T11:18:28.197Z,13.75
2023-04-09T11:20:56.376Z,13.00
2023-04-09T11:23:24.334Z,12.27
2023-04-09T11:25:51.972Z,12.65
2023-04-09T11:28:19.514Z,12.55
2023-04-09T11:30:49.869Z,12.45
2023-04-09T11:33:19.613Z,12.88
2023-04-09T11:35:47.261Z,12.18
2023-04-09T11:38:14.113Z,12.98
2023-04-09T11:40:48.868Z,12.50
2023-04-09T11:43:17.041Z,12.52
2023-04-09T11:45:44.529Z,12.30
2023-04-09T11:48:12.124Z,12.93
2023-04-09T11:50:38.899Z,12.85
2023-04-09T11:53:21.634Z,12.93
2023-04-09T11:55:51.366Z,12.13
2023-04-09T11:58:18.647Z,13.18
2023-04-09T12:00:46.138Z,11.27
2023-04-09T12:03:13.861Z,11.55
2023-04-09T12:05:49.242Z,10.80
2023-04-09T12:08:18.785Z,10.60
2023-04-09T12:10:46.632Z,11.13
2023-04-09T12:13:13.965Z,11.02
2023-04-09T12:15:43.751Z,10.25
2023-04-09T12:18:12.610Z,10.32
2023-04-09T12:20:41.049Z,10.88
2023-04-09T12:23:08.480Z,11.63
2023-04-09T12:25:37.769Z,10.68
2023-04-09T12:28:06.353Z,11.35
2023-04-09T12:30:33.952Z,9.80
2023-04-09T12:33:01.012Z,10.65
2023-04-09T12:35:28.621Z,9.63
2023-04-09T12:37:55.856Z,9.45
2023-04-09T12:40:22.791Z,9.75
2023-04-09T12:42:49.622Z,10.02
2023-04-09T12:45:18.131Z,9.68
2023-04-09T12:47:45.210Z,9.88
2023-04-09T12:50:13.312Z,10.35
2023-04-09T12:52:40.465Z,10.02
2023-04-09T12:55:07.841Z,10.00
2023-04-09T12:57:34.744Z,10.50
2023-04-09T13:00:01.478Z,9.77
2023-04-09T13:02:28.306Z,9.52
2023-04-09T13:04:55.124Z,10.02
2023-04-09T13:07:22.970Z,9.35
2023-04-09T13:09:52.892Z,8.70
2023-04-09T13:12:21.791Z,8.80
2023-04-09T13:14:49.000Z,8.48
2023-04-09T13:17:16.456Z,9.02
2023-04-09T13:19:43.318Z,9.23
2023-04-09T13:22:10.726Z,8.57
2023-04-09T13:24:38.881Z,7.38
2023-04-09T13:27:06.834Z,7.70
2023-04-09T13:29:36.673Z,7.13
2023-04-09T13:32:11.413Z,7.00
2023-04-09T13:34:39.792Z,6.22
2023-04-09T13:37:06.891Z,6.85
2023-04-09T13:39:33.683Z,6.65
2023-04-09T13:42:03.631Z,6.15
2023-04-09T13:44:35.665Z,6.50
2023-04-09T13:47:02.992Z,6.55
2023-04-09T13:49:31.235Z,6.18
2023-04-09T13:51:58.224Z,6.03
2023-04-09T13:54:25.791Z,5.53
2023-04-09T13:56:53.432Z,5.90
2023-04-09T13:59:20.238Z,6.30
2023-04-09T14:01:47.281Z,6.03
2023-04-09T14:04:14.241Z,5.70
2023-04-09T14:06:42.904Z,6.43
2023-04-09T14:09:10.758Z,6.07
2023-04-09T14:11:37.921Z,5.78
2023-04-09T14:14:04.886Z,5.53
2023-04-09T14:16:31.957Z,5.38
2023-04-09T14:18:59.281Z,5.80
2023-04-09T14:21:27.312Z,5.53
2023-04-09T14:23:54.401Z,6.60
2023-04-09T14:26:22.934Z,6.43
2023-04-09T14:28:52.057Z,5.80
2023-04-09T14:31:21.788Z,5.63
2023-04-09T14:33:49.089Z,5.80
2023-04-09T14:36:16.999Z,5.43
2023-04-09T14:38:44.582Z,5.32
2023-04-09T14:41:11.533Z,6.00
2023-04-09T14:43:38.558Z,5.70
2023-04-09T14:46:07.870Z,5.03
2023-04-09T14:48:35.391Z,4.80
2023-04-09T14:51:02.910Z,5.00
2023-04-09T14:53:29.978Z,5.13
2023-04-09T14:55:57.674Z,5.30
2023-04-09T14:58:24.774Z,5.00
2023-04-09T15:00:51.532Z,5.28
2023-04-09T15:03:18.428Z,5.13
2023-04-09T15:05:46.584Z,4.93
2023-04-09T15:08:15.155Z,6.43
2023-04-09T15:10:43.669Z,5.10
2023-04-09T15:13:11.352Z,5.60
2023-04-09T15:15:41.392Z,5.22
2023-04-09T15:18:08.595Z,5.47
2023-04-09T15:20:39.140Z,5.35
2023-04-09T15:23:06.209Z,4.85
2023-04-09T15:25:33.892Z,5.22
2023-04-09T15:28:00.892Z,5.25
2023-04-09T15:30:28.329Z,5.07
2023-04-09T15:32:55.823Z,5.15
2023-04-09T15:35:30.274Z,5.13
2023-04-09T15:38:00.062Z,5.10
2023-04-09T15:40:29.449Z,5.40
2023-04-09T15:42:56.409Z,4.63
2023-04-09T15:45:23.613Z,5.28
2023-04-09T15:47:51.341Z,5.30
2023-04-09T15:50:18.392Z,5.07
2023-04-09T15:52:45.352Z,5.15
2023-04-09T15:55:12.915Z,4.90
2023-04-09T15:57:40.214Z,5.13
2023-04-09T16:00:12.797Z,5.05
2023-04-09T16:02:56.752Z,5.07
2023-04-09T16:05:27.091Z,4.68
2023-04-09T16:07:54.056Z,4.88
2023-04-09T16:10:21.314Z,4.32
2023-04-09T16:12:49.160Z,4.60
2023-04-09T16:15:19.634Z,4.38
2023-04-09T16:17:47.738Z,4.25
2023-04-09T16:20:15.187Z,4.25
2023-04-09T16:22:42.428Z,4.88
2023-04-09T16:25:10.014Z,4.43
2023-04-09T16:27:37.016Z,4.55
2023-04-09T16:30:07.974Z,4.32
2023-04-09T16:32:34.744Z,4.32
2023-04-09T16:35:03.841Z,7.93
2023-04-09T16:37:34.679Z,8.38
2023-04-09T16:40:02.887Z,7.80
2023-04-09T16:42:33.441Z,7.20
2023-04-09T16:45:15.060Z,7.25
2023-04-09T16:47:47.970Z,6.50
2023-04-09T16:50:21.786Z,5.63
2023-04-09T16:52:49.940Z,5.50
2023-04-09T16:55:26.037Z,5.20
2023-04-09T16:57:58.507Z,6.00
2023-04-09T17:00:36.996Z,5.25
2023-04-09T17:03:14.690Z,5.38
2023-04-09T17:06:00.155Z,6.97
2023-04-09T17:08:28.215Z,8.75
2023-04-09T17:11:02.537Z,9.40
2023-04-09T17:13:36.871Z,8.43
2023-04-09T17:16:06.445Z,8.57
2023-04-09T17:18:39.902Z,8.52
2023-04-09T17:21:11.928Z,9.10
2023-04-09T17:23:44.900Z,8.43
2023-04-09T17:26:11.897Z,8.25
2023-04-09T17:28:44.514Z,9.30
2023-04-09T17:31:14.322Z,9.25
2023-04-09T17:33:56.553Z,9.00
2023-04-09T17:36:29.323Z,9.25
2023-04-09T17:38:57.248Z,9.25
2023-04-09T17:41:32.274Z,8.70
2023-04-09T17:44:02.082Z,8.57
2023-04-09T17:46:32.103Z,9.32
2023-04-09T17:49:00.209Z,9.70
2023-04-09T17:51:27.476Z,9.10
2023-04-09T17:53:54.743Z,9.45
2023-04-09T17:56:28.430Z,9.68
2023-04-09T17:58:58.335Z,11.40
2023-04-09T18:01:27.353Z,11.93
2023-04-09T18:03:56.271Z,13.00
2023-04-09T18:06:23.473Z,15.77
2023-04-09T18:08:52.903Z,13.05
2023-04-09T18:11:20.584Z,12.75
2023-04-09T18:13:51.545Z,11.25
2023-04-09T18:16:21.047Z,10.82
2023-04-09T18:18:48.417Z,13.32
2023-04-09T18:21:16.702Z,10.48
2023-04-09T18:23:44.286Z,10.10
2023-04-09T18:26:11.342Z,8.60
2023-04-09T18:28:38.207Z,8.77
2023-04-09T18:31:06.354Z,8.63
2023-04-09T18:33:35.160Z,8.90
2023-04-09T18:36:03.032Z,9.02
2023-04-09T18:38:30.751Z,9.15
2023-04-09T18:40:58.065Z,9.00
2023-04-09T18:43:26.024Z,8.98
2023-04-09T18:45:52.995Z,9.43
2023-04-09T18:48:19.966Z,9.52
2023-04-09T18:50:47.255Z,9.52
2023-04-09T18:53:14.604Z,13.30
2023-04-09T18:55:41.359Z,9.77
2023-04-09T18:58:11.832Z,9.73
2023-04-09T19:00:42.667Z,10.00
2023-04-09T19:03:09.881Z,11.07
2023-04-09T19:05:36.660Z,10.20
2023-04-09T19:08:07.915Z,10.75
2023-04-09T19:10:34.822Z,10.30
2023-04-09T19:13:03.093Z,10.75
2023-04-09T19:15:30.026Z,10.98
2023-04-09T19:17:57.675Z,10.40
2023-04-09T19:20:25.046Z,10.75
2023-04-09T19:22:57.222Z,10.65
2023-04-09T19:25:24.600Z,11.63
2023-04-09T19:27:53.916Z,11.45
2023-04-09T19:30:21.924Z,11.10
2023-04-09T19:32:49.298Z,11.23
2023-04-09T19:35:17.260Z,11.20
2023-04-09T19:37:45.279Z,11.30
2023-04-09T19:40:12.652Z,11.52
2023-04-09T19:42:40.310Z,11.52
2023-04-09T19:45:08.931Z,12.20
2023-04-09T19:47:35.877Z,12.00
2023-04-09T19:50:02.767Z,11.63
2023-04-09T19:52:30.013Z,11.90
2023-04-09T19:54:58.086Z,11.82
2023-04-09T19:57:27.168Z,13.18
2023-04-09T19:59:54.755Z,12.60
2023-04-09T20:02:22.143Z,11.50
2023-04-09T20:04:49.214Z,12.85
2023-04-09T20:07:16.370Z,12.13
2023-04-09T20:09:47.289Z,12.32
2023-04-09T20:12:17.547Z,13.18
2023-04-09T20:14:45.010Z,12.55
2023-04-09T20:17:12.403Z,12.55
2023-04-09T20:19:39.816Z,12.80
2023-04-09T20:22:06.794Z,12.70
2023-04-09T20:24:35.838Z,12.93
2023-04-09T20:27:02.685Z,12.23
2023-04-09T20:29:29.674Z,13.45
2023-04-09T20:31:56.406Z,12.38
2023-04-09T20:34:27.067Z,12.32
2023-04-09T20:36:57.066Z,12.70
2023-04-09T20:39:27.088Z,11.68
2023-04-09T20:41:55.411Z,11.60
2023-04-09T20:44:22.900Z,12.48
2023-04-09T20:46:49.866Z,13.23
2023-04-09T20:49:16.894Z,11.93
2023-04-09T20:51:43.919Z,12.70
2023-04-09T20:54:11.033Z,13.23
2023-04-09T20:56:37.962Z,13.68
2023-04-09T20:59:05.330Z,14.85
2023-04-09T21:01:33.793Z,14.85
2023-04-09T21:04:04.316Z,14.30
2023-04-09T21:06:31.390Z,14.15
2023-04-09T21:08:59.693Z,13.95
2023-04-09T21:11:26.828Z,12.98
2023-04-09T21:13:55.062Z,13.60
2023-04-09T21:16:23.525Z,13.90
2023-04-09T21:18:51.043Z,13.10
2023-04-09T21:21:18.249Z,12.98
2023-04-09T21:23:44.959Z,13.43
2023-04-09T21:26:12.238Z,14.95
2023-04-09T21:28:39.285Z,14.98
2023-04-09T21:31:06.454Z,14.10
2023-04-09T21:33:33.508Z,14.07
2023-04-09T21:36:01.553Z,13.50
2023-04-09T21:38:28.635Z,13.20
2023-04-09T21:40:55.631Z,13.57
2023-04-09T21:43:22.605Z,13.93
2023-04-09T21:45:50.398Z,14.85
2023-04-09T21:48:17.151Z,14.48
2023-04-09T21:50:44.092Z,14.27
2023-04-09T21:53:11.417Z,14.25
2023-04-09T21:55:39.471Z,15.57
2023-04-09T21:58:07.450Z,15.15
2023-04-09T22:00:34.490Z,15.60
2023-04-09T22:03:02.140Z,15.05
2023-04-09T22:05:29.799Z,15.75
2023-04-09T22:07:57.201Z,15.52
2023-04-09T22:10:24.753Z,15.90
2023-04-09T22:12:51.737Z,16.02
2023-04-09T22:15:20.566Z,16.35
2023-04-09T22:17:47.905Z,15.57
2023-04-09T22:20:14.900Z,15.65
2023-04-09T22:22:42.880Z,14.73
2023-04-09T22:25:12.655Z,14.27
2023-04-09T22:27:39.662Z,13.73
2023-04-09T22:30:07.859Z,13.98
2023-04-09T22:32:35.191Z,13.55
2023-04-09T22:35:02.647Z,13.93
2023-04-09T22:37:29.838Z,13.95
2023-04-09T22:39:56.766Z,14.20
2023-04-09T22:42:25.566Z,13.18
2023-04-09T22:44:54.052Z,13.73
2023-04-09T22:47:20.840Z,13.80
2023-04-09T22:49:47.808Z,13.45
2023-04-09T22:52:15.031Z,14.43
2023-04-09T22:54:43.731Z,13.93
2023-04-09T22:57:10.651Z,14.55
2023-04-09T22:59:40.737Z,13.27
2023-04-09T23:02:08.419Z,14.10
2023-04-09T23:04:35.390Z,14.77
2023-04-09T23:07:02.844Z,14.55
2023-04-09T23:09:31.193Z,14.38
2023-04-09T23:11:58.631Z,14.10
2023-04-09T23:14:25.483Z,14.25
2023-04-09T23:16:52.244Z,14.25
2023-04-09T23:19:19.465Z,14.05
2023-04-09T23:21:46.229Z,14.68
2023-04-09T23:24:13.267Z,14.23
2023-04-09T23:26:40.062Z,14.05
2023-04-09T23:29:07.175Z,14.00
2023-04-09T23:31:34.170Z,14.75
2023-04-09T23:34:01.374Z,13.93
2023-04-09T23:36:29.297Z,13.38
2023-04-09T23:38:56.454Z,14.70
2023-04-09T23:41:23.873Z,13.35
2023-04-09T23:43:51.444Z,13.95
2023-04-09T23:46:18.517Z,13.73
2023-04-09T23:48:45.429Z,13.05
2023-04-09T23:51:18.135Z,13.70
2023-04-09T23:53:45.706Z,13.00
2023-04-09T23:56:14.437Z,13.02
2023-04-09T23:58:41.530Z,14.13
